大連 の空港の天気 - METARとTAF

大連周水子国際空港 ( ZYTL / DLC ) - 中国 遼寧省大連市
飛行場実況気象(Metar)
観測時間05/27 08:30 CST (05/27 00:30 UTC)
風向・風速不定 2m/s
視程10km以上
天気現象
なし
気温24℃
湿度36%
気圧1000hPa
METARZYTL 270030Z VRB02MPS CAVOK 24/08 Q1000 NOSIG
過去の天気等 Google飛行場航空写真 Wunderground天気予報

過去48時間のMETAR

飛行場予報(TAF)
発表時間: 5/27 05:05 CST (5/26 21:05 UTC)
予報対象時間: 27日8時 CST ~ 28日8時 CST
風向・風速南西 4m/s
視程5000m
天気現象もや
なし
27日8時 CST ~ 27日14時 CST に一時的に
風向・風速西北西 5m/s
TAF ZYTL 262105Z 2700/2724 22004MPS 5000 BR NSC TX26/2706Z TN16/2721Z
TEMPO 2700/2706 29005MPS